createdAt,value
2022-09-10T00:00:47.713Z,4.70
2022-09-10T00:01:50.269Z,4.40
2022-09-10T00:02:54.276Z,5.53
2022-09-10T00:03:57.050Z,3.70
2022-09-10T00:05:02.557Z,5.57
2022-09-10T00:06:12.686Z,6.07
2022-09-10T00:07:22.686Z,3.58
2022-09-10T00:08:25.249Z,6.72
2022-09-10T00:09:30.058Z,4.15
2022-09-10T00:10:32.596Z,4.78
2022-09-10T00:11:44.651Z,3.00
2022-09-10T00:12:48.368Z,4.93
2022-09-10T00:13:52.591Z,4.93
2022-09-10T00:14:55.971Z,4.95
2022-09-10T00:15:59.707Z,5.07
2022-09-10T00:17:09.715Z,4.57
2022-09-10T00:18:12.486Z,5.72
2022-09-10T00:19:16.217Z,4.78
2022-09-10T00:20:18.996Z,4.32
2022-09-10T00:21:23.171Z,4.28
2022-09-10T00:22:32.716Z,4.93
2022-09-10T00:23:36.371Z,4.35
2022-09-10T00:24:40.209Z,4.53
2022-09-10T00:25:43.721Z,4.32
2022-09-10T00:26:46.580Z,3.65
2022-09-10T00:27:56.707Z,4.13
2022-09-10T00:29:06.687Z,3.40
2022-09-10T00:30:30.660Z,2.47
2022-09-10T00:31:34.755Z,2.92
2022-09-10T00:32:38.458Z,3.00
2022-09-10T00:33:42.837Z,2.85
2022-09-10T00:34:51.683Z,2.65
2022-09-10T00:35:55.195Z,3.40
2022-09-10T00:36:58.164Z,2.00
2022-09-10T00:38:01.658Z,3.58
2022-09-10T00:39:12.636Z,2.42
2022-09-10T00:40:17.805Z,2.80
2022-09-10T00:41:22.447Z,1.48
2022-09-10T00:42:25.975Z,1.80
2022-09-10T00:43:28.548Z,2.60
2022-09-10T00:44:57.676Z,2.75
2022-09-10T00:46:00.269Z,1.90
2022-09-10T00:47:04.235Z,1.83
2022-09-10T00:48:12.471Z,2.65
2022-09-10T00:49:17.818Z,1.83
2022-09-10T00:50:29.700Z,1.90
2022-09-10T00:51:35.166Z,3.28
2022-09-10T00:52:40.061Z,1.75
2022-09-10T00:53:44.237Z,2.58
2022-09-10T00:54:47.681Z,2.35
2022-09-10T00:56:01.704Z,3.70
2022-09-10T00:57:06.369Z,2.80
2022-09-10T00:58:12.152Z,1.98
2022-09-10T00:59:16.416Z,3.20
2022-09-10T01:00:19.094Z,3.33
2022-09-10T01:01:29.704Z,3.40
2022-09-10T01:02:32.474Z,2.67
2022-09-10T01:03:35.974Z,5.10
2022-09-10T01:04:39.559Z,3.47
2022-09-10T01:05:44.560Z,4.13
2022-09-10T01:06:53.713Z,3.63
2022-09-10T01:07:58.123Z,4.35
2022-09-10T01:09:01.738Z,3.67
2022-09-10T01:10:06.740Z,3.35
2022-09-10T01:11:22.639Z,3.85
2022-09-10T01:12:53.698Z,3.30
2022-09-10T01:14:03.760Z,3.47
2022-09-10T01:15:12.553Z,4.13
2022-09-10T01:16:19.314Z,1.52
2022-09-10T01:17:27.752Z,3.55
2022-09-10T01:18:40.709Z,3.47
2022-09-10T01:20:08.703Z,3.28
2022-09-10T01:21:20.932Z,2.33
2022-09-10T01:22:30.298Z,2.97
2022-09-10T01:24:00.674Z,3.17
2022-09-10T01:25:15.707Z,3.38
2022-09-10T01:26:25.518Z,2.83
2022-09-10T01:27:43.885Z,3.55
2022-09-10T01:28:52.414Z,2.47
2022-09-10T01:30:10.771Z,3.35
2022-09-10T01:31:21.799Z,3.17
2022-09-10T01:32:28.281Z,2.30
2022-09-10T01:33:34.521Z,3.38
2022-09-10T01:34:41.831Z,3.28
2022-09-10T01:35:53.739Z,2.35
2022-09-10T01:37:00.731Z,2.60
2022-09-10T01:38:07.875Z,3.95
2022-09-10T01:39:10.499Z,4.13
2022-09-10T01:40:14.525Z,3.30
2022-09-10T01:41:23.706Z,3.60
2022-09-10T01:42:33.927Z,4.82
2022-09-10T01:43:36.486Z,3.35
2022-09-10T01:44:44.890Z,2.95
2022-09-10T01:45:54.654Z,3.17
2022-09-10T01:47:10.751Z,2.83
2022-09-10T01:48:28.382Z,3.28
2022-09-10T01:49:37.627Z,4.30
2022-09-10T01:50:44.337Z,2.38
2022-09-10T01:51:54.811Z,3.65
2022-09-10T01:53:13.753Z,2.75
2022-09-10T01:54:29.560Z,1.75
2022-09-10T01:55:35.981Z,3.17
2022-09-10T01:56:42.842Z,2.78
2022-09-10T01:57:55.740Z,4.03
2022-09-10T01:59:00.301Z,3.88
2022-09-10T02:00:07.631Z,2.97
2022-09-10T02:01:16.719Z,3.03
2022-09-10T02:02:21.802Z,3.00
2022-09-10T02:03:33.737Z,4.32
2022-09-10T02:04:36.807Z,4.05
2022-09-10T02:05:41.468Z,3.00
2022-09-10T02:06:47.690Z,4.28
2022-09-10T02:07:53.950Z,3.55
2022-09-10T02:09:04.720Z,2.80
2022-09-10T02:10:09.905Z,3.67
2022-09-10T02:11:14.396Z,3.67
2022-09-10T02:12:20.290Z,2.80
2022-09-10T02:13:23.239Z,3.55
2022-09-10T02:14:33.715Z,3.42
2022-09-10T02:15:44.729Z,3.25
2022-09-10T02:16:49.850Z,3.28
2022-09-10T02:17:53.742Z,2.15
2022-09-10T02:18:58.160Z,4.25
2022-09-10T02:20:02.194Z,3.65
2022-09-10T02:21:12.685Z,3.53
2022-09-10T02:22:15.547Z,2.38
2022-09-10T02:23:20.023Z,2.90
2022-09-10T02:24:22.643Z,2.33
2022-09-10T02:25:33.764Z,3.53
2022-09-10T02:26:38.200Z,3.65
2022-09-10T02:27:43.484Z,2.08
2022-09-10T02:28:49.716Z,3.58
2022-09-10T02:30:00.015Z,3.10
2022-09-10T02:31:10.872Z,3.92
2022-09-10T02:32:14.480Z,3.13
2022-09-10T02:33:17.097Z,3.83
2022-09-10T02:34:21.750Z,3.03
2022-09-10T02:35:24.249Z,3.38
2022-09-10T02:36:34.773Z,3.42
2022-09-10T02:37:37.416Z,2.72
2022-09-10T02:38:40.958Z,2.63
2022-09-10T02:39:45.001Z,3.30
2022-09-10T02:40:49.086Z,2.63
2022-09-10T02:41:59.733Z,3.15
2022-09-10T02:43:02.289Z,3.20
2022-09-10T02:44:06.228Z,3.10
2022-09-10T02:45:09.086Z,2.80
2022-09-10T02:46:13.913Z,3.78
2022-09-10T02:47:22.728Z,2.85
2022-09-10T02:48:26.926Z,3.40
2022-09-10T02:49:35.724Z,2.80
2022-09-10T02:50:39.190Z,3.35
2022-09-10T02:51:42.461Z,4.07
2022-09-10T02:52:52.716Z,3.17
2022-09-10T02:53:55.962Z,3.38
2022-09-10T02:55:06.730Z,3.85
2022-09-10T02:56:09.380Z,4.68
2022-09-10T02:57:13.179Z,4.00
2022-09-10T02:58:22.740Z,3.58
2022-09-10T02:59:26.587Z,4.18
2022-09-10T03:00:29.131Z,4.05
2022-09-10T03:01:35.244Z,4.53
2022-09-10T03:02:37.781Z,2.63
2022-09-10T03:03:47.736Z,3.70
2022-09-10T03:04:56.724Z,4.05
2022-09-10T03:06:00.363Z,3.17
2022-09-10T03:07:03.622Z,3.55
2022-09-10T03:08:07.314Z,4.15
2022-09-10T03:09:16.787Z,4.97
2022-09-10T03:10:20.516Z,2.95
2022-09-10T03:11:24.075Z,3.40
2022-09-10T03:12:27.563Z,3.20
2022-09-10T03:13:30.354Z,3.03
2022-09-10T03:14:40.765Z,3.13
2022-09-10T03:15:43.586Z,3.80
2022-09-10T03:16:48.553Z,4.10
2022-09-10T03:17:51.443Z,5.00
2022-09-10T03:18:55.029Z,4.55
2022-09-10T03:20:04.720Z,4.30
2022-09-10T03:21:13.176Z,4.25
2022-09-10T03:22:15.763Z,4.68
2022-09-10T03:23:19.212Z,4.15
2022-09-10T03:24:22.472Z,5.57
2022-09-10T03:25:32.753Z,3.38
2022-09-10T03:26:41.726Z,3.63
2022-09-10T03:27:45.287Z,3.13
2022-09-10T03:28:48.500Z,4.28
2022-09-10T03:29:58.908Z,4.43
2022-09-10T03:31:08.099Z,2.78
2022-09-10T03:32:19.736Z,4.78
2022-09-10T03:33:22.266Z,4.03
2022-09-10T03:34:25.814Z,4.63
2022-09-10T03:35:28.437Z,4.07
2022-09-10T03:36:38.743Z,4.00
2022-09-10T03:37:41.542Z,3.67
2022-09-10T03:38:51.734Z,4.07
2022-09-10T03:39:54.348Z,2.92
2022-09-10T03:40:58.167Z,4.53
2022-09-10T03:42:00.737Z,3.90
2022-09-10T03:43:04.195Z,3.67
2022-09-10T03:44:13.746Z,3.30
2022-09-10T03:45:17.240Z,2.78
2022-09-10T03:46:19.989Z,3.95
2022-09-10T03:47:24.773Z,3.40
2022-09-10T03:48:27.422Z,3.13
2022-09-10T03:49:37.735Z,4.32
2022-09-10T03:50:40.307Z,3.97
2022-09-10T03:51:43.999Z,2.75
2022-09-10T03:52:52.727Z,3.35
2022-09-10T03:54:02.732Z,3.53
2022-09-10T03:55:06.060Z,5.60
2022-09-10T03:56:09.569Z,3.40
2022-09-10T03:57:18.785Z,2.80
2022-09-10T03:58:22.215Z,4.40
2022-09-10T03:59:24.792Z,3.45
2022-09-10T04:00:28.399Z,4.43
2022-09-10T04:01:31.087Z,4.55
2022-09-10T04:02:42.772Z,3.33
2022-09-10T04:03:51.734Z,3.53
2022-09-10T04:04:55.338Z,3.55
2022-09-10T04:05:58.534Z,3.13
2022-09-10T04:07:02.084Z,4.28
2022-09-10T04:08:11.803Z,2.92
2022-09-10T04:09:15.266Z,2.53
2022-09-10T04:10:20.426Z,4.13
2022-09-10T04:11:27.693Z,4.60
2022-09-10T04:12:30.235Z,3.85
2022-09-10T04:13:40.763Z,4.35
2022-09-10T04:14:45.436Z,4.15
2022-09-10T04:15:48.932Z,4.60
2022-09-10T04:16:52.372Z,2.97
2022-09-10T04:17:57.231Z,3.40
2022-09-10T04:19:06.730Z,4.75
2022-09-10T04:20:10.595Z,4.10
2022-09-10T04:21:13.206Z,3.40
2022-09-10T04:22:16.689Z,4.70
2022-09-10T04:23:19.238Z,2.97
2022-09-10T04:24:30.151Z,3.83
2022-09-10T04:25:33.631Z,5.10
2022-09-10T04:26:37.360Z,3.67
2022-09-10T04:27:39.937Z,3.90
2022-09-10T04:28:43.520Z,4.90
2022-09-10T04:29:52.845Z,3.47
2022-09-10T04:31:02.957Z,3.55
2022-09-10T04:32:05.592Z,2.85
2022-09-10T04:33:11.664Z,3.60
2022-09-10T04:34:14.215Z,3.00
2022-09-10T04:35:25.748Z,3.22
2022-09-10T04:36:29.233Z,2.92
2022-09-10T04:37:32.248Z,3.78
2022-09-10T04:38:40.629Z,3.58
2022-09-10T04:39:43.667Z,3.67
2022-09-10T04:40:53.761Z,4.75
2022-09-10T04:41:56.270Z,4.45
2022-09-10T04:43:05.756Z,3.90
2022-09-10T04:44:09.304Z,2.53
2022-09-10T04:45:11.990Z,3.83
2022-09-10T04:46:15.436Z,3.85
2022-09-10T04:47:18.595Z,3.25
2022-09-10T04:48:29.749Z,4.25
2022-09-10T04:49:32.274Z,4.30
2022-09-10T04:50:35.831Z,2.78
2022-09-10T04:51:44.782Z,3.90
2022-09-10T04:52:48.268Z,5.15
2022-09-10T04:53:50.935Z,5.65
2022-09-10T04:54:54.378Z,3.53
2022-09-10T04:55:56.921Z,4.70
2022-09-10T04:57:07.765Z,4.25
2022-09-10T04:58:11.484Z,4.63
2022-09-10T04:59:14.148Z,3.55
2022-09-10T05:00:17.873Z,3.75
2022-09-10T05:01:27.813Z,3.17
2022-09-10T05:02:30.456Z,3.00
2022-09-10T05:03:35.396Z,3.78
2022-09-10T05:04:45.746Z,3.10
2022-09-10T05:05:49.349Z,3.60
2022-09-10T05:06:51.981Z,3.85
2022-09-10T05:07:55.464Z,3.20
2022-09-10T05:09:04.816Z,3.15
2022-09-10T05:10:10.557Z,4.25
2022-09-10T05:11:13.235Z,4.43
2022-09-10T05:12:16.778Z,4.45
2022-09-10T05:13:19.377Z,4.15
2022-09-10T05:14:29.751Z,4.00
2022-09-10T05:15:32.381Z,4.40
2022-09-10T05:16:36.611Z,3.72
2022-09-10T05:17:39.913Z,4.05
2022-09-10T05:18:44.691Z,2.95
2022-09-10T05:19:53.816Z,3.85
2022-09-10T05:20:57.300Z,5.15
2022-09-10T05:21:59.851Z,3.22
2022-09-10T05:23:03.591Z,3.17
2022-09-10T05:24:06.340Z,2.78
2022-09-10T05:25:16.760Z,3.88
2022-09-10T05:26:19.330Z,3.58
2022-09-10T05:27:22.828Z,2.50
2022-09-10T05:28:26.394Z,3.60
2022-09-10T05:29:28.989Z,3.30
2022-09-10T05:30:51.243Z,3.55
2022-09-10T05:32:01.964Z,2.97
2022-09-10T05:33:04.584Z,2.33
2022-09-10T05:34:09.402Z,4.20
2022-09-10T05:35:12.286Z,4.20
2022-09-10T05:36:22.828Z,3.72
2022-09-10T05:37:25.385Z,4.18
2022-09-10T05:38:29.952Z,3.35
2022-09-10T05:39:32.742Z,4.25
2022-09-10T05:40:36.236Z,4.05
2022-09-10T05:41:45.760Z,3.30
2022-09-10T05:42:49.226Z,2.88
2022-09-10T05:43:51.762Z,3.92
2022-09-10T05:44:55.229Z,2.17
2022-09-10T05:45:57.860Z,2.88
2022-09-10T05:47:07.838Z,3.38
2022-09-10T05:48:10.376Z,2.97
2022-09-10T05:49:15.298Z,5.35
2022-09-10T05:50:17.925Z,2.70
2022-09-10T05:51:22.078Z,2.75
2022-09-10T05:52:30.801Z,2.38
2022-09-10T05:53:34.459Z,2.28
2022-09-10T05:54:36.989Z,2.30
2022-09-10T05:55:40.586Z,2.97
2022-09-10T05:56:44.137Z,1.77
2022-09-10T05:57:52.838Z,3.55
2022-09-10T05:58:56.737Z,2.17
2022-09-10T06:00:00.169Z,2.22
2022-09-10T06:01:03.814Z,3.47
2022-09-10T06:02:06.530Z,3.05
2022-09-10T06:03:16.917Z,3.20
2022-09-10T06:04:20.885Z,3.22
2022-09-10T06:05:24.367Z,3.17
2022-09-10T06:06:28.377Z,3.67
2022-09-10T06:07:39.747Z,2.67
2022-09-10T06:08:43.305Z,2.83
2022-09-10T06:09:45.828Z,2.97
2022-09-10T06:10:57.627Z,3.10
2022-09-10T06:12:06.817Z,2.42
2022-09-10T06:13:11.259Z,2.40
2022-09-10T06:14:14.917Z,2.83
2022-09-10T06:15:18.372Z,2.40
2022-09-10T06:16:21.026Z,2.78
2022-09-10T06:17:30.821Z,2.47
2022-09-10T06:18:33.393Z,3.30
2022-09-10T06:19:38.188Z,2.88
2022-09-10T06:20:40.765Z,3.05
2022-09-10T06:21:44.464Z,3.17
2022-09-10T06:22:53.770Z,3.33
2022-09-10T06:23:57.411Z,2.85
2022-09-10T06:24:59.923Z,2.83
2022-09-10T06:26:04.692Z,1.90
2022-09-10T06:27:07.337Z,2.47
2022-09-10T06:28:18.776Z,2.42
2022-09-10T06:29:22.712Z,2.28
2022-09-10T06:30:33.389Z,2.25
2022-09-10T06:31:36.172Z,3.05
2022-09-10T06:32:46.849Z,2.03
2022-09-10T06:33:50.346Z,2.42
2022-09-10T06:34:54.178Z,2.65
2022-09-10T06:35:58.239Z,1.92
2022-09-10T06:37:03.332Z,2.33
2022-09-10T06:38:13.790Z,1.67
2022-09-10T06:39:23.779Z,2.92
2022-09-10T06:40:27.823Z,1.83
2022-09-10T06:41:31.158Z,1.25
2022-09-10T06:42:34.626Z,2.63
2022-09-10T06:43:37.527Z,3.28
2022-09-10T06:44:47.816Z,2.67
2022-09-10T06:45:53.141Z,2.15
2022-09-10T06:47:35.972Z,1.88
2022-09-10T06:48:39.070Z,2.05
2022-09-10T06:49:50.769Z,2.70
2022-09-10T06:50:55.954Z,2.42
2022-09-10T06:51:59.418Z,2.42
2022-09-10T06:53:01.982Z,1.42
2022-09-10T06:54:05.901Z,2.85
2022-09-10T06:55:14.812Z,2.60
2022-09-10T06:56:18.674Z,2.33
2022-09-10T06:57:21.404Z,2.10
2022-09-10T06:58:25.761Z,1.98
2022-09-10T06:59:28.332Z,2.75
2022-09-10T07:00:38.819Z,1.90
2022-09-10T07:01:42.580Z,2.92
2022-09-10T07:02:45.160Z,2.97
2022-09-10T07:03:48.770Z,2.05
2022-09-10T07:04:51.288Z,3.03
2022-09-10T07:06:03.951Z,1.67
2022-09-10T07:07:07.721Z,2.30
2022-09-10T07:08:12.362Z,2.33
2022-09-10T07:09:15.925Z,3.00
2022-09-10T07:10:18.488Z,2.25
2022-09-10T07:11:28.812Z,2.53
2022-09-10T07:12:33.031Z,1.63
2022-09-10T07:13:37.587Z,2.65
2022-09-10T07:14:41.138Z,1.92
2022-09-10T07:15:46.731Z,2.67
2022-09-10T07:16:57.809Z,2.92
2022-09-10T07:18:06.801Z,2.22
2022-09-10T07:19:10.350Z,2.30
2022-09-10T07:20:13.648Z,3.10
2022-09-10T07:21:19.326Z,1.88
2022-09-10T07:22:28.861Z,2.15
2022-09-10T07:23:32.509Z,1.50
2022-09-10T07:24:35.470Z,2.08
2022-09-10T07:25:39.000Z,2.78
2022-09-10T07:26:41.588Z,3.92
2022-09-10T07:27:51.779Z,2.30
2022-09-10T07:28:55.779Z,2.65
2022-09-10T07:29:58.417Z,2.50
2022-09-10T07:31:09.443Z,2.03
2022-09-10T07:32:19.512Z,2.88
2022-09-10T07:33:28.788Z,2.45
2022-09-10T07:34:32.283Z,2.63
2022-09-10T07:35:36.424Z,3.15
2022-09-10T07:36:41.251Z,3.10
2022-09-10T07:37:51.823Z,3.97
2022-09-10T07:39:03.812Z,2.25
2022-09-10T07:40:06.957Z,2.95
2022-09-10T07:41:12.359Z,2.25
2022-09-10T07:42:14.920Z,2.03
2022-09-10T07:43:24.879Z,2.70
2022-09-10T07:44:27.409Z,2.47
2022-09-10T07:45:31.059Z,2.38
2022-09-10T07:46:34.540Z,3.13
2022-09-10T07:47:37.161Z,1.63
2022-09-10T07:48:47.864Z,3.67
2022-09-10T07:49:52.879Z,1.92
2022-09-10T07:51:03.487Z,1.50
2022-09-10T07:52:08.390Z,2.30
2022-09-10T07:53:11.285Z,2.17
2022-09-10T07:54:23.808Z,2.45
2022-09-10T07:55:26.369Z,1.98
2022-09-10T07:56:38.839Z,1.85
2022-09-10T07:57:41.487Z,2.35
2022-09-10T07:58:44.979Z,3.10
2022-09-10T07:59:47.739Z,2.53
2022-09-10T08:00:51.202Z,3.17
2022-09-10T08:01:59.862Z,2.15
2022-09-10T08:03:04.333Z,2.72
2022-09-10T08:04:07.494Z,2.42
2022-09-10T08:05:19.841Z,2.47
2022-09-10T08:06:23.299Z,3.60
2022-09-10T08:07:28.152Z,3.40
2022-09-10T08:08:31.734Z,2.20
2022-09-10T08:09:41.881Z,2.90
2022-09-10T08:10:44.583Z,3.43
2022-09-10T08:11:48.318Z,3.33
2022-09-10T08:12:52.111Z,2.80
2022-09-10T08:13:56.943Z,2.30
2022-09-10T08:15:06.059Z,2.72
2022-09-10T08:16:10.261Z,2.13
2022-09-10T08:17:12.969Z,2.47
2022-09-10T08:18:16.526Z,1.97
2022-09-10T08:19:19.130Z,2.53
2022-09-10T08:20:32.803Z,2.25
2022-09-10T08:21:36.694Z,2.53
2022-09-10T08:22:41.631Z,2.27
2022-09-10T08:23:48.977Z,1.87
2022-09-10T08:24:52.931Z,2.90
2022-09-10T08:26:03.839Z,2.03
2022-09-10T08:27:12.936Z,2.60
2022-09-10T08:28:19.070Z,1.93
2022-09-10T08:29:24.282Z,1.57
2022-09-10T08:30:35.063Z,2.83
2022-09-10T08:31:44.366Z,3.15
2022-09-10T08:32:55.869Z,2.55
2022-09-10T08:34:04.798Z,2.87
2022-09-10T08:35:08.635Z,3.25
2022-09-10T08:36:13.911Z,2.80
2022-09-10T08:37:18.666Z,2.80
2022-09-10T08:38:22.881Z,2.73
2022-09-10T08:39:32.965Z,3.40
2022-09-10T08:40:39.820Z,2.93
2022-09-10T08:41:47.120Z,2.13
2022-09-10T08:42:51.721Z,2.73
2022-09-10T08:43:56.978Z,3.00
2022-09-10T08:45:08.887Z,3.57
2022-09-10T08:46:16.863Z,2.50
2022-09-10T08:47:23.090Z,3.70
2022-09-10T08:48:34.302Z,2.83
2022-09-10T08:49:45.843Z,2.90
2022-09-10T08:50:52.769Z,2.70
2022-09-10T08:51:58.270Z,3.27
2022-09-10T08:53:06.091Z,2.83
2022-09-10T08:54:12.584Z,3.43
2022-09-10T08:55:27.840Z,3.30
2022-09-10T08:56:31.469Z,2.23
2022-09-10T08:57:35.955Z,2.63
2022-09-10T08:58:42.681Z,1.97
2022-09-10T08:59:46.244Z,3.33
2022-09-10T09:01:00.947Z,3.07
2022-09-10T09:02:22.461Z,3.13
2022-09-10T09:03:37.398Z,2.90
2022-09-10T09:04:50.814Z,2.33
2022-09-10T09:05:56.202Z,3.43
2022-09-10T09:07:01.707Z,2.60
2022-09-10T09:08:06.585Z,2.63
2022-09-10T09:09:15.791Z,3.00
2022-09-10T09:10:26.871Z,2.57
2022-09-10T09:11:34.530Z,2.87
2022-09-10T09:12:40.649Z,2.20
2022-09-10T09:14:04.007Z,2.90
2022-09-10T09:15:10.422Z,2.87
2022-09-10T09:16:41.065Z,3.07
2022-09-10T09:18:06.065Z,2.00
2022-09-10T09:19:15.823Z,3.30
2022-09-10T09:20:26.460Z,3.17
2022-09-10T09:21:35.426Z,2.03
2022-09-10T09:22:49.934Z,3.67
2022-09-10T09:24:12.777Z,3.17
2022-09-10T09:25:23.942Z,2.77
2022-09-10T09:26:29.068Z,3.77
2022-09-10T09:27:35.479Z,3.17
2022-09-10T09:28:48.820Z,4.03
2022-09-10T09:29:56.046Z,3.10
2022-09-10T09:31:09.551Z,4.37
2022-09-10T09:32:21.641Z,4.37
2022-09-10T09:33:25.283Z,3.00
2022-09-10T09:34:38.910Z,3.77
2022-09-10T09:35:45.206Z,3.23
2022-09-10T09:36:49.670Z,4.50
2022-09-10T09:37:55.281Z,2.97
2022-09-10T09:39:04.842Z,3.87
2022-09-10T09:40:12.827Z,4.40
2022-09-10T09:41:24.875Z,13.17
2022-09-10T09:42:33.150Z,11.73
2022-09-10T09:43:42.222Z,9.17
2022-09-10T09:44:57.254Z,4.83
2022-09-10T09:46:01.278Z,2.83
2022-09-10T09:47:05.009Z,3.73
2022-09-10T09:48:09.065Z,3.30
2022-09-10T09:49:16.385Z,3.17
2022-09-10T09:50:26.039Z,2.57
2022-09-10T09:51:30.751Z,3.60
2022-09-10T09:52:33.513Z,2.40
2022-09-10T09:53:36.978Z,3.97
2022-09-10T09:55:12.437Z,4.17
2022-09-10T09:56:19.879Z,3.50
2022-09-10T09:57:24.699Z,3.07
2022-09-10T09:58:28.461Z,4.67
2022-09-10T09:59:34.850Z,4.83
2022-09-10T10:00:38.391Z,4.13
2022-09-10T10:01:50.054Z,3.67
2022-09-10T10:02:53.451Z,3.20
2022-09-10T10:04:01.631Z,3.63
2022-09-10T10:05:07.360Z,3.60
2022-09-10T10:06:10.990Z,3.87
2022-09-10T10:07:20.899Z,3.57
2022-09-10T10:08:28.941Z,3.37
2022-09-10T10:09:33.830Z,3.77
2022-09-10T10:10:36.504Z,3.90
2022-09-10T10:11:45.478Z,3.73
2022-09-10T10:13:01.865Z,3.80
2022-09-10T10:14:12.670Z,3.83
2022-09-10T10:15:36.634Z,2.50
2022-09-10T10:16:39.373Z,3.27
2022-09-10T10:17:49.899Z,4.20
2022-09-10T10:18:52.448Z,2.93
2022-09-10T10:20:11.101Z,4.17
2022-09-10T10:21:27.839Z,3.17
2022-09-10T10:22:32.082Z,3.23
2022-09-10T10:23:42.903Z,2.47
2022-09-10T10:24:47.000Z,3.90
2022-09-10T10:25:52.948Z,3.77
2022-09-10T10:26:55.520Z,3.33
2022-09-10T10:28:00.410Z,2.87
2022-09-10T10:29:12.969Z,2.90
2022-09-10T10:30:31.582Z,3.90
2022-09-10T10:31:47.828Z,2.77
2022-09-10T10:32:53.515Z,2.53
2022-09-10T10:34:04.870Z,2.00
2022-09-10T10:35:20.848Z,2.90
2022-09-10T10:36:26.411Z,3.67
2022-09-10T10:37:33.489Z,3.20
2022-09-10T10:38:40.469Z,3.73
2022-09-10T10:39:55.894Z,3.10
2022-09-10T10:41:20.078Z,4.20
2022-09-10T10:42:26.773Z,3.97
2022-09-10T10:43:35.409Z,3.77
2022-09-10T10:44:56.921Z,3.17
2022-09-10T10:46:02.474Z,2.97
2022-09-10T10:47:15.899Z,3.70
2022-09-10T10:48:23.850Z,3.23
2022-09-10T10:49:32.465Z,4.30
2022-09-10T10:50:49.765Z,3.50
2022-09-10T10:52:01.169Z,2.97
2022-09-10T10:53:11.139Z,3.60
2022-09-10T10:54:33.200Z,3.63
2022-09-10T10:55:38.727Z,2.97
2022-09-10T10:56:49.840Z,3.27
2022-09-10T10:58:13.218Z,4.23
2022-09-10T10:59:33.255Z,3.77
2022-09-10T11:00:40.731Z,4.03
2022-09-10T11:01:52.952Z,3.97
2022-09-10T11:03:01.130Z,4.03
2022-09-10T11:04:12.651Z,3.60
2022-09-10T11:05:27.977Z,3.93
2022-09-10T11:06:41.841Z,4.80
2022-09-10T11:07:46.696Z,3.67
2022-09-10T11:08:51.726Z,3.90
2022-09-10T11:10:05.860Z,4.00
2022-09-10T11:11:13.396Z,2.23
2022-09-10T11:12:17.961Z,3.03
2022-09-10T11:13:24.025Z,2.93
2022-09-10T11:14:34.938Z,3.93
2022-09-10T11:15:44.196Z,4.67
2022-09-10T11:16:49.215Z,4.37
2022-09-10T11:17:55.320Z,2.33
2022-09-10T11:18:59.739Z,4.57
2022-09-10T11:20:28.357Z,3.50
2022-09-10T11:21:36.310Z,4.03
2022-09-10T11:22:41.259Z,3.27
2022-09-10T11:23:47.397Z,3.30
2022-09-10T11:24:57.888Z,3.83
2022-09-10T11:26:10.842Z,3.77
2022-09-10T11:27:15.282Z,3.63
2022-09-10T11:28:20.650Z,4.33
2022-09-10T11:29:32.878Z,2.63
2022-09-10T11:30:43.951Z,4.40
2022-09-10T11:31:58.147Z,3.70
2022-09-10T11:33:11.359Z,4.23
2022-09-10T11:34:18.900Z,4.77
2022-09-10T11:35:29.888Z,3.00
2022-09-10T11:36:35.690Z,3.63
2022-09-10T11:37:48.378Z,3.20
2022-09-10T11:38:57.508Z,3.60
2022-09-10T11:40:08.182Z,2.40
2022-09-10T11:41:16.210Z,3.13
2022-09-10T11:42:27.163Z,3.90
2022-09-10T11:43:36.222Z,4.23
2022-09-10T11:44:44.480Z,3.07
2022-09-10T11:45:55.996Z,4.77
2022-09-10T11:47:02.924Z,3.30
2022-09-10T11:48:10.498Z,3.67
2022-09-10T11:49:22.602Z,4.23
2022-09-10T11:50:34.255Z,4.90
2022-09-10T11:51:45.893Z,3.27
2022-09-10T11:52:48.536Z,3.90
2022-09-10T11:53:52.307Z,4.00
2022-09-10T11:54:55.561Z,3.67
2022-09-10T11:56:06.789Z,3.90
2022-09-10T11:57:22.899Z,4.87
2022-09-10T11:58:32.135Z,5.10
2022-09-10T11:59:56.683Z,4.07
2022-09-10T12:01:06.624Z,3.57
2022-09-10T12:02:34.862Z,3.63
2022-09-10T12:03:56.206Z,4.70
2022-09-10T12:05:01.672Z,4.43
2022-09-10T12:06:08.682Z,3.77
2022-09-10T12:07:24.879Z,3.10
2022-09-10T12:08:33.298Z,3.80
2022-09-10T12:09:40.907Z,3.77
2022-09-10T12:10:47.721Z,3.97
2022-09-10T12:11:58.579Z,3.43
2022-09-10T12:13:08.885Z,4.17
2022-09-10T12:14:17.461Z,3.73
2022-09-10T12:15:21.248Z,2.20
2022-09-10T12:16:30.160Z,4.50
2022-09-10T12:17:41.892Z,3.27
2022-09-10T12:18:46.892Z,3.23
2022-09-10T12:19:50.925Z,4.20
2022-09-10T12:20:58.090Z,4.07
2022-09-10T12:22:04.130Z,4.30
2022-09-10T12:23:14.898Z,3.33
2022-09-10T12:24:32.231Z,3.90
2022-09-10T12:25:36.019Z,4.27
2022-09-10T12:26:42.554Z,3.60
2022-09-10T12:27:47.277Z,5.03
2022-09-10T12:29:07.906Z,3.20
2022-09-10T12:30:31.151Z,2.90
2022-09-10T12:32:02.094Z,4.03
2022-09-10T12:33:33.864Z,3.17
2022-09-10T12:34:45.892Z,2.13
2022-09-10T12:35:50.371Z,3.53
2022-09-10T12:37:19.892Z,2.93
2022-09-10T12:38:41.079Z,3.17
2022-09-10T12:39:51.956Z,3.13
2022-09-10T12:41:02.907Z,4.40
2022-09-10T12:42:21.210Z,4.13
2022-09-10T12:43:43.419Z,3.37
2022-09-10T12:44:53.910Z,3.07
2022-09-10T12:46:10.932Z,3.30
2022-09-10T12:47:28.044Z,4.40
2022-09-10T12:48:31.570Z,4.53
2022-09-10T12:49:34.113Z,3.47
2022-09-10T12:50:53.325Z,4.40
2022-09-10T12:51:59.140Z,3.73
2022-09-10T12:53:21.437Z,3.97
2022-09-10T12:54:31.498Z,4.73
2022-09-10T12:55:41.844Z,4.53
2022-09-10T12:57:10.929Z,4.63
2022-09-10T12:58:23.278Z,3.73
2022-09-10T12:59:44.948Z,3.67
2022-09-10T13:01:08.011Z,3.83
2022-09-10T13:02:20.481Z,3.70
2022-09-10T13:03:26.448Z,3.87
2022-09-10T13:04:30.514Z,4.23
2022-09-10T13:05:50.491Z,4.07
2022-09-10T13:07:02.910Z,5.50
2022-09-10T13:08:12.780Z,3.67
2022-09-10T13:09:20.800Z,4.40
2022-09-10T13:10:28.911Z,5.67
2022-09-10T13:11:32.742Z,4.00
2022-09-10T13:12:43.911Z,4.20
2022-09-10T13:13:51.738Z,5.27
2022-09-10T13:14:57.538Z,4.87
2022-09-10T13:16:00.299Z,6.43
2022-09-10T13:17:10.980Z,5.23
2022-09-10T13:18:29.878Z,6.40
2022-09-10T13:19:52.129Z,5.93
2022-09-10T13:20:54.763Z,5.30
2022-09-10T13:21:59.745Z,4.40
2022-09-10T13:23:10.910Z,6.07
2022-09-10T13:24:32.321Z,4.90
2022-09-10T13:25:40.361Z,6.13
2022-09-10T13:26:58.909Z,6.17
2022-09-10T13:28:02.803Z,5.20
2022-09-10T13:29:09.224Z,6.00
2022-09-10T13:30:16.809Z,6.93
2022-09-10T13:31:31.579Z,5.93
2022-09-10T13:32:48.909Z,5.03
2022-09-10T13:34:18.928Z,5.70
2022-09-10T13:35:39.305Z,4.80
2022-09-10T13:36:48.571Z,6.30
2022-09-10T13:38:18.129Z,5.20
2022-09-10T13:39:48.983Z,6.33
2022-09-10T13:41:11.088Z,4.90
2022-09-10T13:42:35.003Z,4.47
2022-09-10T13:43:44.598Z,5.33
2022-09-10T13:45:01.173Z,5.17
2022-09-10T13:46:06.842Z,5.23
2022-09-10T13:47:11.711Z,4.73
2022-09-10T13:48:17.475Z,4.63
2022-09-10T13:49:23.639Z,5.77
2022-09-10T13:50:34.899Z,5.53
2022-09-10T13:51:43.199Z,5.40
2022-09-10T13:52:48.146Z,5.57
2022-09-10T13:53:51.669Z,5.90
2022-09-10T13:54:55.358Z,4.67
2022-09-10T13:56:09.285Z,5.17
2022-09-10T13:57:17.860Z,5.23
2022-09-10T13:58:28.323Z,5.77
2022-09-10T13:59:34.134Z,4.53
2022-09-10T14:00:40.358Z,6.87
2022-09-10T14:01:56.928Z,6.30
2022-09-10T14:03:00.189Z,4.90
2022-09-10T14:04:22.592Z,5.87
2022-09-10T14:05:36.600Z,4.10
2022-09-10T14:06:40.077Z,4.57
2022-09-10T14:07:50.943Z,4.97
2022-09-10T14:08:55.973Z,5.60
2022-09-10T14:10:01.386Z,3.90
2022-09-10T14:11:08.289Z,4.17
2022-09-10T14:12:13.821Z,5.50
2022-09-10T14:13:25.065Z,4.80
2022-09-10T14:14:32.558Z,5.63
2022-09-10T14:15:39.651Z,4.60
2022-09-10T14:16:45.222Z,4.00
2022-09-10T14:17:56.950Z,4.17
2022-09-10T14:19:01.962Z,5.27
2022-09-10T14:20:07.832Z,6.63
2022-09-10T14:21:13.254Z,4.60
2022-09-10T14:22:17.118Z,4.50
2022-09-10T14:23:27.072Z,5.10
2022-09-10T14:24:30.747Z,3.80
2022-09-10T14:25:35.890Z,4.43
2022-09-10T14:26:40.064Z,6.13
2022-09-10T14:27:44.177Z,3.80
2022-09-10T14:29:01.917Z,4.93
2022-09-10T14:30:23.979Z,4.43
2022-09-10T14:31:38.360Z,4.00
2022-09-10T14:32:53.901Z,3.43
2022-09-10T14:34:04.914Z,4.13
2022-09-10T14:35:22.953Z,3.87
2022-09-10T14:36:34.241Z,5.97
2022-09-10T14:37:38.151Z,5.57
2022-09-10T14:38:48.888Z,3.50
2022-09-10T14:39:51.892Z,5.33
2022-09-10T14:40:58.488Z,5.33
2022-09-10T14:42:11.631Z,4.13
2022-09-10T14:43:16.249Z,5.20
2022-09-10T14:44:36.915Z,3.67
2022-09-10T14:45:43.496Z,6.33
2022-09-10T14:46:47.438Z,3.73
2022-09-10T14:47:53.897Z,4.13
2022-09-10T14:49:03.427Z,3.93
2022-09-10T14:50:33.932Z,3.50
2022-09-10T14:51:36.680Z,3.30
2022-09-10T14:52:40.229Z,4.07
2022-09-10T14:53:43.297Z,6.73
2022-09-10T14:54:53.914Z,3.77
2022-09-10T14:55:56.389Z,3.40
2022-09-10T14:57:00.419Z,3.93
2022-09-10T14:58:03.000Z,4.70
2022-09-10T14:59:11.764Z,5.00
2022-09-10T15:00:23.109Z,3.93
2022-09-10T15:01:28.427Z,4.50
2022-09-10T15:02:38.068Z,4.53
2022-09-10T15:03:42.371Z,4.57
2022-09-10T15:04:46.106Z,4.50